Time;durP1;ratioP1;P1;durP2;ratioP2;P2;SDS_P1;SDS_P2;PMS_P1;PMS_P2;Temp;Humidity;BMP_temperature;BMP_pressure;BME280_temperature;BME280_humidity;BME280_pressure;Samples;Min_cycle;Max_cycle;Signal;HPM_P1;HPM_P2
2023/04/15 00:00:29;;;;;;;9.85;5.03;;;5.80;99.90;;;;;;5091943;28;20051;-79
2023/04/15 00:02:55;;;;;;;10.57;6.15;;;6.80;99.90;;;;;;5108059;28;20039;-79
2023/04/15 00:05:21;;;;;;;12.15;6.13;;;7.10;99.90;;;;;;5091189;28;20508;-78
2023/04/15 00:07:46;;;;;;;13.50;5.60;;;5.70;99.90;;;;;;5108008;28;20046;-79
2023/04/15 00:10:16;;;;;;;8.52;5.00;;;6.10;99.90;;;;;;5107729;28;20054;-79
2023/04/15 00:12:41;;;;;;;15.68;4.95;;;5.60;99.90;;;;;;5092433;28;20436;-79
2023/04/15 00:15:08;;;;;;;13.48;5.18;;;5.60;99.90;;;;;;5107385;28;20046;-79
2023/04/15 00:17:34;;;;;;;15.68;5.05;;;5.60;99.90;;;;;;5077348;27;20045;-79
2023/04/15 00:20:00;;;;;;;11.75;4.75;;;5.60;99.90;;;;;;5061397;27;20031;-78
2023/04/15 00:22:26;;;;;;;10.13;5.15;;;5.60;99.90;;;;;;5078158;27;20482;-79
2023/04/15 00:24:53;;;;;;;9.95;4.95;;;5.50;99.90;;;;;;5094924;27;20093;-79
2023/04/15 00:27:19;;;;;;;9.90;5.70;;;5.50;99.90;;;;;;5094125;27;20078;-79
2023/04/15 00:29:44;;;;;;;10.32;4.53;;;5.80;99.90;;;;;;5112331;27;20622;-79
2023/04/15 00:32:10;;;;;;;11.27;5.00;;;5.40;99.90;;;;;;5093826;27;20049;-79
2023/04/15 00:34:36;;;;;;;11.60;5.38;;;5.40;99.90;;;;;;5112338;27;20069;-79
2023/04/15 00:37:02;;;;;;;9.07;4.75;;;5.40;99.90;;;;;;5094764;27;20054;-78
2023/04/15 00:39:28;;;;;;;17.65;5.28;;;5.40;99.90;;;;;;5111938;27;20190;-78
2023/04/15 00:41:54;;;;;;;11.75;5.28;;;5.40;99.90;;;;;;5111964;27;20051;-78
2023/04/15 00:44:20;;;;;;;13.57;5.55;;;6.40;99.90;;;;;;5077581;27;20035;-79
2023/04/15 00:46:47;;;;;;;13.38;5.18;;;5.40;99.90;;;;;;5094898;27;20100;-79
2023/04/15 00:49:13;;;;;;;11.38;5.70;;;6.30;99.90;;;;;;5110837;27;20058;-79
2023/04/15 00:51:38;;;;;;;12.43;6.07;;;5.50;99.90;;;;;;5112386;27;20047;-78
2023/04/15 00:54:07;;;;;;;14.25;6.10;;;5.60;99.90;;;;;;5110480;27;20067;-79
2023/04/15 00:56:37;;;;;;;10.23;5.65;;;5.30;99.90;;;;;;5111848;27;20520;-78
2023/04/15 00:59:05;;;;;;;12.15;6.20;;;6.40;99.90;;;;;;5111020;27;20571;-79
2023/04/15 01:01:33;;;;;;;9.98;5.68;;;4.80;99.90;;;;;;5110332;27;20050;-78
2023/04/15 01:03:58;;;;;;;11.85;6.13;;;5.30;99.90;;;;;;5111530;27;20515;-79
2023/04/15 01:06:26;;;;;;;16.13;6.53;;;5.30;99.90;;;;;;5093022;27;20486;-79
2023/04/15 01:08:53;;;;;;;10.75;5.57;;;5.30;99.90;;;;;;5095062;27;20133;-78
2023/04/15 01:11:19;;;;;;;12.18;5.95;;;5.30;99.90;;;;;;5110399;27;20043;-79
2023/04/15 01:13:46;;;;;;;14.02;6.28;;;5.30;99.90;;;;;;5111135;27;20035;-78
2023/04/15 01:16:12;;;;;;;12.00;5.70;;;6.50;99.90;;;;;;5110712;27;20043;-78
2023/04/15 01:18:38;;;;;;;16.75;5.70;;;5.20;99.90;;;;;;5110184;27;20039;-79
2023/04/15 01:21:05;;;;;;;13.40;6.78;;;5.20;99.90;;;;;;5094488;27;20095;-79
2023/04/15 01:23:35;;;;;;;18.02;6.43;;;5.20;99.90;;;;;;5109730;27;20047;-79
2023/04/15 01:26:02;;;;;;;11.80;6.30;;;5.60;99.90;;;;;;5111458;27;20046;-79
2023/04/15 01:28:28;;;;;;;15.25;6.63;;;5.20;99.90;;;;;;5109697;27;20055;-78
2023/04/15 01:31:13;;;;;;;11.80;6.15;;;5.10;99.90;;;;;;5129182;27;20051;-79
2023/04/15 01:33:42;;;;;;;9.50;5.72;;;5.10;99.90;;;;;;5110769;27;20078;-78
2023/04/15 01:36:08;;;;;;;12.40;6.45;;;5.10;99.90;;;;;;5105802;28;20059;-79
2023/04/15 01:38:36;;;;;;;16.58;6.38;;;5.00;99.90;;;;;;5091160;28;20459;-79
2023/04/15 01:41:03;;;;;;;9.43;6.00;;;5.20;99.90;;;;;;5105991;28;20079;-79
2023/04/15 01:43:29;;;;;;;14.60;6.88;;;6.10;99.90;;;;;;5090985;28;20039;-79
2023/04/15 01:45:55;;;;;;;18.10;7.55;;;5.00;99.90;;;;;;5106539;28;20111;-79
2023/04/15 01:48:21;;;;;;;11.93;6.75;;;4.90;99.90;;;;;;5106523;28;20092;-78
2023/04/15 01:50:48;;;;;;;11.90;6.35;;;5.50;99.90;;;;;;5107339;28;20506;-79
2023/04/15 01:53:14;;;;;;;10.35;6.07;;;4.90;99.90;;;;;;5105868;28;20048;-78
2023/04/15 01:55:40;;;;;;;9.80;6.80;;;4.80;99.90;;;;;;5107704;28;20406;-79
2023/04/15 01:58:06;;;;;;;14.02;6.57;;;4.80;99.90;;;;;;5088757;28;20043;-79
2023/04/15 02:00:32;;;;;;;14.20;8.88;;;4.80;99.90;;;;;;5107792;28;20070;-79
2023/04/15 02:02:58;;;;;;;11.20;7.38;;;4.80;99.90;;;;;;5089698;28;20417;-78
2023/04/15 02:05:24;;;;;;;14.23;7.60;;;4.80;99.90;;;;;;5106198;28;20451;-78
2023/04/15 02:07:50;;;;;;;16.67;8.48;;;4.90;99.90;;;;;;5106748;28;20044;-79
2023/04/15 02:10:16;;;;;;;13.38;8.48;;;4.70;99.90;;;;;;5071709;28;20116;-79
2023/04/15 02:12:42;;;;;;;17.00;8.60;;;6.10;99.90;;;;;;5073209;28;20067;-79
2023/04/15 02:15:09;;;;;;;19.23;8.77;;;6.00;99.90;;;;;;5105365;28;20070;-79
2023/04/15 02:17:36;;;;;;;17.00;8.75;;;4.80;99.90;;;;;;5106833;28;20054;-79
2023/04/15 02:20:04;;;;;;;14.48;8.80;;;4.80;99.90;;;;;;5089373;28;20046;-78
2023/04/15 02:22:30;;;;;;;13.32;8.20;;;4.70;99.90;;;;;;5106463;28;20087;-79
2023/04/15 02:24:56;;;;;;;20.30;8.93;;;4.70;99.90;;;;;;5106736;28;20048;-79
2023/04/15 02:27:22;;;;;;;12.18;8.57;;;6.00;99.90;;;;;;5105337;28;20452;-78
2023/04/15 02:29:49;;;;;;;17.85;9.82;;;4.70;99.90;;;;;;5106814;28;20043;-79
2023/04/15 02:32:16;;;;;;;17.23;9.23;;;4.70;99.90;;;;;;5105185;28;20035;-78
2023/04/15 02:34:41;;;;;;;11.90;8.75;;;4.70;99.90;;;;;;5090930;27;20043;-79
2023/04/15 02:37:08;;;;;;;14.63;8.75;;;4.70;99.90;;;;;;5108911;27;20058;-78
2023/04/15 02:39:34;;;;;;;15.85;9.52;;;4.70;99.90;;;;;;5108571;27;20054;-78
2023/04/15 02:42:00;;;;;;;14.55;8.70;;;5.50;99.90;;;;;;5109908;27;20043;-79
2023/04/15 02:44:30;;;;;;;14.30;9.95;;;4.70;99.90;;;;;;5108489;27;20502;-78
2023/04/15 02:46:57;;;;;;;16.38;9.88;;;4.70;99.90;;;;;;5110417;27;20055;-78
2023/04/15 02:49:23;;;;;;;13.80;9.43;;;4.70;99.90;;;;;;5108214;27;20062;-79
2023/04/15 02:51:50;;;;;;;15.23;9.02;;;5.00;99.90;;;;;;5109867;27;20581;-79
2023/04/15 02:54:19;;;;;;;15.95;10.07;;;4.70;99.90;;;;;;5091813;27;20077;-79
2023/04/15 02:56:45;;;;;;;19.73;9.48;;;4.70;99.90;;;;;;5108742;27;20516;-78
2023/04/15 02:59:11;;;;;;;19.70;10.02;;;4.70;99.90;;;;;;5109256;27;20047;-78
2023/04/15 03:01:37;;;;;;;15.15;9.90;;;5.40;99.90;;;;;;5108443;27;20732;-78
2023/04/15 03:04:03;;;;;;;19.00;11.35;;;4.70;99.90;;;;;;5109399;27;20051;-78
2023/04/15 03:06:29;;;;;;;17.48;10.32;;;4.70;99.90;;;;;;5107799;27;20062;-79
2023/04/15 03:08:55;;;;;;;19.70;11.48;;;4.70;99.90;;;;;;5092453;27;20087;-78
2023/04/15 03:11:21;;;;;;;17.92;10.70;;;4.70;99.90;;;;;;5108365;27;20079;-78
2023/04/15 03:13:47;;;;;;;17.40;12.18;;;4.60;99.90;;;;;;5109068;27;20101;-78
2023/04/15 03:16:12;;;;;;;22.40;11.45;;;5.90;99.90;;;;;;5075235;27;20065;-78
2023/04/15 03:18:38;;;;;;;21.20;11.30;;;4.60;99.90;;;;;;5074000;27;20398;-78
2023/04/15 03:21:05;;;;;;;16.67;10.80;;;4.60;99.90;;;;;;5092092;27;20411;-78
2023/04/15 03:23:31;;;;;;;17.67;11.38;;;4.60;99.90;;;;;;5107886;28;20091;-78
2023/04/15 03:25:57;;;;;;;20.30;11.65;;;4.60;99.90;;;;;;5092057;28;20047;-78
2023/04/15 03:28:23;;;;;;;17.63;11.25;;;4.60;99.90;;;;;;5091087;28;20490;-78
2023/04/15 03:30:49;;;;;;;18.92;11.90;;;4.60;99.90;;;;;;5091954;28;20054;-78
2023/04/15 03:33:15;;;;;;;24.88;12.07;;;4.60;99.90;;;;;;5108802;28;20066;-78
2023/04/15 03:35:40;;;;;;;23.80;13.05;;;4.60;99.90;;;;;;5090586;28;20103;-78
2023/04/15 03:38:06;;;;;;;19.55;11.40;;;5.70;99.90;;;;;;5108671;28;20057;-78
2023/04/15 03:40:32;;;;;;;22.75;12.45;;;4.60;99.90;;;;;;5107707;28;20047;-78
2023/04/15 03:42:58;;;;;;;20.25;11.52;;;4.50;99.90;;;;;;5109269;28;20054;-78
2023/04/15 03:45:24;;;;;;;19.27;12.73;;;4.80;99.90;;;;;;5090603;28;20039;-78
2023/04/15 03:47:50;;;;;;;20.33;12.45;;;4.70;99.90;;;;;;5108731;28;20039;-78
2023/04/15 03:50:16;;;;;;;20.52;12.52;;;4.50;99.90;;;;;;5126912;27;20371;-78
2023/04/15 03:52:42;;;;;;;21.73;12.70;;;5.40;99.90;;;;;;5094874;27;20513;-78
2023/04/15 03:55:08;;;;;;;17.50;11.38;;;5.60;99.90;;;;;;5095783;27;20047;-78
2023/04/15 03:57:37;;;;;;;19.90;12.27;;;4.50;99.90;;;;;;5094443;27;20063;-79
2023/04/15 04:00:05;;;;;;;22.48;14.07;;;4.50;99.90;;;;;;5097327;27;20043;-78
2023/04/15 04:02:30;;;;;;;20.02;13.35;;;4.40;99.90;;;;;;5112187;27;20394;-79
2023/04/15 04:04:56;;;;;;;21.50;13.48;;;4.40;99.90;;;;;;5112435;27;20039;-79
2023/04/15 04:07:23;;;;;;;26.88;14.27;;;5.70;99.90;;;;;;5112569;27;20078;-78
2023/04/15 04:09:48;;;;;;;20.08;13.82;;;5.70;99.90;;;;;;5095166;27;20401;-79
2023/04/15 04:12:14;;;;;;;20.73;13.15;;;4.50;99.90;;;;;;5112445;27;20043;-79
2023/04/15 04:14:40;;;;;;;19.73;13.27;;;4.50;99.90;;;;;;5094462;27;20574;-79
2023/04/15 04:17:06;;;;;;;24.35;13.23;;;4.50;99.90;;;;;;5112911;27;20039;-78
2023/04/15 04:19:32;;;;;;;18.05;12.10;;;3.60;99.90;;;;;;5094995;27;20035;-78
2023/04/15 04:21:58;;;;;;;21.00;13.18;;;4.60;99.90;;;;;;5079231;27;20397;-79
2023/04/15 04:24:24;;;;;;;18.23;12.35;;;4.60;99.90;;;;;;5112191;27;20043;-78
2023/04/15 04:26:49;;;;;;;17.90;12.45;;;4.60;99.90;;;;;;5111395;27;20050;-79
2023/04/15 04:29:15;;;;;;;26.45;12.45;;;4.60;99.90;;;;;;5112255;27;20043;-79
2023/04/15 04:31:41;;;;;;;20.30;12.48;;;4.60;99.90;;;;;;5093831;27;20130;-79
2023/04/15 04:34:07;;;;;;;17.38;11.98;;;4.60;99.90;;;;;;5096037;27;20050;-80
2023/04/15 04:36:32;;;;;;;15.63;11.52;;;4.50;99.90;;;;;;5110833;27;20483;-80
2023/04/15 04:38:58;;;;;;;13.70;10.43;;;4.50;99.90;;;;;;5112020;27;20055;-79
2023/04/15 04:41:24;;;;;;;15.75;10.35;;;4.40;99.90;;;;;;5111287;27;20051;-79
2023/04/15 04:43:50;;;;;;;14.32;10.00;;;4.40;99.90;;;;;;5077392;27;20039;-79
2023/04/15 04:46:18;;;;;;;14.05;9.77;;;4.40;99.90;;;;;;5095187;27;20046;-79
2023/04/15 04:48:44;;;;;;;15.32;10.85;;;4.20;99.90;;;;;;5093845;27;20551;-79
2023/04/15 04:51:10;;;;;;;16.77;10.63;;;4.20;99.90;;;;;;5095722;27;20047;-79
2023/04/15 04:53:36;;;;;;;13.98;9.85;;;4.10;99.90;;;;;;5111091;27;20437;-79
2023/04/15 04:56:02;;;;;;;15.15;9.90;;;4.60;99.90;;;;;;5112366;27;20054;-79
2023/04/15 04:58:28;;;;;;;13.98;9.48;;;4.00;99.90;;;;;;5094560;27;20051;-79
2023/04/15 05:00:55;;;;;;;14.70;9.25;;;4.00;99.90;;;;;;5094610;27;20046;-79
2023/04/15 05:03:21;;;;;;;13.23;9.75;;;4.00;99.90;;;;;;5093786;27;20180;-79
2023/04/15 05:05:48;;;;;;;14.73;9.80;;;3.90;99.90;;;;;;5110458;27;20130;-78
2023/04/15 05:08:14;;;;;;;15.48;10.05;;;3.90;99.90;;;;;;5111614;27;20051;-77
2023/04/15 05:10:40;;;;;;;13.18;9.50;;;3.90;99.90;;;;;;5093236;27;20180;-78
2023/04/15 05:13:05;;;;;;;13.75;10.30;;;3.90;99.90;;;;;;5095349;27;20508;-78
2023/04/15 05:15:32;;;;;;;16.77;10.52;;;3.90;99.90;;;;;;5093651;27;20039;-78
2023/04/15 05:17:57;;;;;;;18.75;10.82;;;3.90;99.90;;;;;;5077366;27;20035;-78
2023/04/15 05:20:23;;;;;;;18.30;10.27;;;3.90;99.90;;;;;;5094048;27;20184;-78
2023/04/15 05:22:49;;;;;;;17.27;11.13;;;3.90;99.90;;;;;;5093745;27;20400;-78
2023/04/15 05:25:15;;;;;;;15.05;10.13;;;3.90;99.90;;;;;;5094698;27;20042;-78
2023/04/15 05:27:41;;;;;;;15.43;10.90;;;4.00;99.90;;;;;;5093174;27;20450;-78
2023/04/15 05:30:07;;;;;;;18.55;11.02;;;4.00;99.90;;;;;;5111650;27;20131;-78
2023/04/15 05:32:33;;;;;;;16.08;11.10;;;4.10;99.90;;;;;;5093565;27;20051;-78
2023/04/15 05:34:59;;;;;;;14.70;10.98;;;5.30;99.90;;;;;;5093202;27;20051;-79
2023/04/15 05:37:25;;;;;;;15.57;9.85;;;4.20;99.90;;;;;;5092753;27;20057;-78
2023/04/15 05:39:51;;;;;;;19.70;11.85;;;4.30;99.90;;;;;;5075099;27;20119;-78
2023/04/15 05:42:17;;;;;;;14.85;10.13;;;4.40;99.90;;;;;;5092612;27;20054;-78
2023/04/15 05:44:42;;;;;;;15.55;9.85;;;4.50;99.90;;;;;;5091657;27;20080;-78
2023/04/15 05:47:09;;;;;;;12.63;9.20;;;4.70;99.90;;;;;;5093003;27;20043;-79
2023/04/15 05:49:35;;;;;;;16.00;9.82;;;4.70;99.90;;;;;;5109024;27;20050;-78
2023/04/15 05:52:01;;;;;;;16.40;10.02;;;5.20;99.90;;;;;;5092416;27;20143;-78
2023/04/15 05:54:27;;;;;;;14.63;9.80;;;5.10;99.90;;;;;;5075436;27;20490;-78
2023/04/15 05:56:53;;;;;;;16.90;9.85;;;6.60;99.90;;;;;;5107911;27;20096;-80
2023/04/15 05:59:18;;;;;;;16.13;9.30;;;5.20;99.90;;;;;;5075538;27;20394;-80
2023/04/15 06:01:44;;;;;;;19.67;10.57;;;6.80;99.90;;;;;;5091371;27;20054;-80
2023/04/15 06:04:10;;;;;;;14.40;10.27;;;5.40;99.90;;;;;;5092184;27;20114;-81
2023/04/15 06:06:37;;;;;;;17.08;10.80;;;6.80;99.90;;;;;;5108843;27;20042;-80
2023/04/15 06:09:03;;;;;;;17.42;9.48;;;5.70;99.90;;;;;;5091822;27;20126;-81
2023/04/15 06:11:32;;;;;;;19.60;11.18;;;6.50;99.90;;;;;;5092438;27;20039;-80
2023/04/15 06:13:58;;;;;;;16.33;10.57;;;5.90;99.90;;;;;;5090981;28;20084;-78
2023/04/15 06:16:26;;;;;;;16.40;10.20;;;7.30;99.90;;;;;;5091640;27;20444;-78
2023/04/15 06:18:52;;;;;;;17.17;10.48;;;6.10;99.90;;;;;;5108143;27;20046;-79
2023/04/15 06:21:18;;;;;;;15.77;10.27;;;7.70;99.90;;;;;;5092089;27;20035;-78
2023/04/15 06:23:44;;;;;;;15.38;9.07;;;6.30;99.90;;;;;;5108556;27;20046;-79
2023/04/15 06:26:09;;;;;;;19.02;9.80;;;6.40;99.90;;;;;;5091394;27;20508;-78
2023/04/15 06:28:35;;;;;;;20.25;13.00;;;6.50;99.90;;;;;;5091438;27;20043;-78
2023/04/15 06:31:01;;;;;;;16.92;10.27;;;7.00;99.90;;;;;;5091042;27;20050;-78
2023/04/15 06:33:27;;;;;;;16.98;10.35;;;8.20;99.90;;;;;;5108826;27;20043;-79
2023/04/15 06:35:52;;;;;;;15.55;10.05;;;6.90;99.90;;;;;;5107228;27;20078;-79
2023/04/15 06:38:18;;;;;;;15.18;9.70;;;7.90;99.90;;;;;;5091640;27;20062;-78
2023/04/15 06:40:44;;;;;;;18.15;9.95;;;7.40;99.90;;;;;;5090941;27;20188;-80
2023/04/15 06:43:10;;;;;;;15.32;8.85;;;8.30;99.90;;;;;;5109010;27;20386;-80
2023/04/15 06:45:36;;;;;;;17.30;9.15;;;7.50;99.90;;;;;;5108645;27;20043;-78
2023/04/15 06:48:01;;;;;;;19.73;9.32;;;7.60;99.90;;;;;;5057104;27;20506;-79
2023/04/15 06:50:27;;;;;;;13.50;8.13;;;8.40;99.90;;;;;;5091167;27;20046;-79
2023/04/15 06:52:55;;;;;;;12.77;8.60;;;7.90;99.90;;;;;;5091117;27;20035;-79
2023/04/15 06:55:21;;;;;;;13.82;9.13;;;8.00;99.90;;;;;;5108519;27;20053;-83
2023/04/15 06:57:46;;;;;;;13.77;8.50;;;9.10;99.90;;;;;;5073860;27;20078;-79
2023/04/15 07:00:13;;;;;;;11.48;7.63;;;8.20;99.90;;;;;;5108680;27;20379;-78
2023/04/15 07:02:38;;;;;;;21.40;10.35;;;8.30;99.90;;;;;;5090697;27;20043;-79
2023/04/15 07:05:06;;;;;;;14.63;8.32;;;8.40;99.90;;;;;;5091571;27;20078;-76
2023/04/15 07:07:32;;;;;;;18.50;9.30;;;8.50;99.90;;;;;;5091413;27;20051;-79
2023/04/15 07:09:57;;;;;;;13.15;8.15;;;8.50;99.90;;;;;;5074105;27;20541;-79
2023/04/15 07:12:23;;;;;;;9.80;7.22;;;8.60;99.90;;;;;;5091270;27;20043;-79
2023/04/15 07:14:49;;;;;;;11.95;7.38;;;8.60;99.90;;;;;;5107607;27;20551;-77
2023/04/15 07:17:14;;;;;;;10.45;6.63;;;8.70;99.90;;;;;;5074351;27;20078;-78
2023/04/15 07:19:40;;;;;;;15.70;7.93;;;9.50;99.90;;;;;;5107961;27;20039;-79
2023/04/15 07:22:06;;;;;;;12.98;7.10;;;8.80;99.90;;;;;;5107717;27;20129;-77
2023/04/15 07:24:32;;;;;;;8.82;5.50;;;9.00;99.90;;;;;;5090454;27;20379;-79
2023/04/15 07:26:58;;;;;;;9.63;5.43;;;8.90;99.90;;;;;;5106711;27;20062;-80
2023/04/15 07:29:25;;;;;;;8.70;5.30;;;9.20;99.90;;;;;;5107969;27;20043;-79
2023/04/15 07:31:51;;;;;;;12.48;5.25;;;8.90;99.90;;;;;;5106834;28;20100;-79
2023/04/15 07:34:18;;;;;;;9.70;5.55;;;8.90;99.90;;;;;;5090685;27;20051;-80
2023/04/15 07:36:49;;;;;;;8.82;5.35;;;8.90;99.90;;;;;;5107103;28;20067;-78
2023/04/15 07:39:15;;;;;;;12.70;6.20;;;9.10;99.90;;;;;;5106882;28;20047;-78
2023/04/15 07:41:41;;;;;;;9.27;4.85;;;9.00;99.90;;;;;;5091089;28;20191;-81
2023/04/15 07:44:07;;;;;;;10.73;5.57;;;9.00;99.90;;;;;;5125338;28;20118;-80
2023/04/15 07:46:32;;;;;;;9.57;5.47;;;9.40;99.90;;;;;;5107424;28;20035;-78
2023/04/15 07:48:58;;;;;;;11.13;5.40;;;9.00;99.90;;;;;;5090002;28;20035;-81
2023/04/15 07:51:24;;;;;;;9.07;5.28;;;9.20;99.90;;;;;;5090768;28;20074;-77
2023/04/15 07:53:50;;;;;;;8.40;5.45;;;9.10;99.90;;;;;;5107106;28;20046;-79
2023/04/15 07:56:16;;;;;;;9.38;4.65;;;9.20;99.90;;;;;;5106689;28;20082;-78
2023/04/15 07:58:42;;;;;;;10.45;5.60;;;9.40;99.90;;;;;;5090226;28;20039;-78
2023/04/15 08:01:08;;;;;;;8.80;4.95;;;9.20;99.90;;;;;;5106793;28;20090;-80
2023/04/15 08:03:34;;;;;;;7.60;4.47;;;9.20;99.90;;;;;;5107481;28;20505;-79
2023/04/15 08:05:59;;;;;;;7.70;5.43;;;9.20;99.90;;;;;;5073158;28;20064;-79
2023/04/15 08:08:26;;;;;;;7.47;4.07;;;9.20;99.90;;;;;;5073925;28;20383;-79
2023/04/15 08:10:51;;;;;;;10.57;5.00;;;9.10;99.90;;;;;;5090233;28;20051;-79
2023/04/15 08:13:17;;;;;;;9.15;4.20;;;9.10;99.90;;;;;;5089457;28;20521;-80
2023/04/15 08:15:43;;;;;;;10.02;3.60;;;9.00;99.90;;;;;;5090009;28;20138;-80
2023/04/15 08:18:09;;;;;;;7.47;3.38;;;9.00;99.90;;;;;;5089138;28;20471;-79
2023/04/15 08:20:36;;;;;;;10.20;3.78;;;8.90;99.90;;;;;;5106803;28;20114;-80
2023/04/15 08:23:03;;;;;;;5.57;3.10;;;8.90;99.90;;;;;;5089313;28;20054;-80
2023/04/15 08:25:29;;;;;;;7.40;2.63;;;8.90;99.90;;;;;;5090217;28;20205;-80
2023/04/15 08:27:56;;;;;;;8.80;3.53;;;8.80;99.90;;;;;;5089834;28;20514;-80
2023/04/15 08:30:22;;;;;;;8.07;3.50;;;8.90;99.90;;;;;;5089411;28;20054;-80
2023/04/15 08:32:49;;;;;;;9.77;3.20;;;8.90;99.90;;;;;;5090288;28;20039;-80
2023/04/15 08:35:14;;;;;;;6.90;3.40;;;8.90;99.90;;;;;;5105892;28;20031;-80
2023/04/15 08:37:40;;;;;;;5.63;3.08;;;8.80;99.90;;;;;;5090381;27;20047;-79
2023/04/15 08:40:08;;;;;;;7.03;3.55;;;8.80;99.90;;;;;;5110082;27;20088;-79
2023/04/15 08:42:42;;;;;;;8.30;2.50;;;9.90;99.90;;;;;;5093867;27;20062;-79
2023/04/15 08:45:10;;;;;;;4.05;2.45;;;9.00;99.90;;;;;;5093568;27;20051;-79
2023/04/15 08:47:40;;;;;;;9.10;2.97;;;8.80;99.90;;;;;;5110207;27;20050;-79
2023/04/15 08:50:09;;;;;;;5.97;1.77;;;8.90;99.90;;;;;;5110968;27;20078;-79
2023/04/15 08:52:35;;;;;;;7.03;2.58;;;9.00;99.90;;;;;;5127984;27;20098;-79
2023/04/15 08:55:02;;;;;;;4.20;1.95;;;9.00;99.90;;;;;;5110339;27;20047;-83
2023/04/15 08:57:28;;;;;;;5.43;1.95;;;9.10;99.90;;;;;;5092962;27;20144;-78
2023/04/15 08:59:57;;;;;;;4.40;1.60;;;9.10;99.90;;;;;;5076376;27;20047;-79
2023/04/15 09:02:27;;;;;;;8.25;2.30;;;9.10;99.90;;;;;;5075973;27;20035;-80
2023/04/15 09:04:53;;;;;;;4.45;1.73;;;9.50;99.90;;;;;;5092575;27;20047;-79
2023/04/15 09:07:18;;;;;;;4.35;1.60;;;9.50;99.90;;;;;;5093700;27;20039;-79
2023/04/15 09:09:44;;;;;;;5.97;1.80;;;9.10;99.90;;;;;;5109432;27;20039;-79
2023/04/15 09:12:11;;;;;;;7.05;1.90;;;9.10;99.90;;;;;;5077062;27;20143;-79
2023/04/15 09:14:40;;;;;;;5.13;2.25;;;9.10;99.90;;;;;;5109846;27;20035;-78
2023/04/15 09:17:09;;;;;;;5.00;1.50;;;9.10;99.90;;;;;;5111222;27;20039;-78
2023/04/15 09:19:35;;;;;;;1.92;1.40;;;9.20;99.90;;;;;;5093700;27;20403;-78
2023/04/15 09:22:01;;;;;;;3.45;1.20;;;9.20;99.90;;;;;;5075852;27;20031;-78
2023/04/15 09:24:37;;;;;;;2.05;1.02;;;9.20;99.90;;;;;;5110667;27;20111;-79
2023/04/15 09:27:03;;;;;;;4.03;1.30;;;9.40;99.90;;;;;;5092498;27;20053;-79
2023/04/15 09:29:28;;;;;;;4.78;2.45;;;9.50;99.90;;;;;;5128472;27;20082;-79
2023/04/15 09:31:54;;;;;;;4.72;1.00;;;9.50;99.90;;;;;;5075263;27;20071;-78
2023/04/15 09:34:20;;;;;;;2.08;1.08;;;9.60;99.90;;;;;;5109632;27;20061;-80
2023/04/15 09:36:53;;;;;;;2.17;0.95;;;9.60;99.90;;;;;;5092162;27;20477;-79
2023/04/15 09:39:19;;;;;;;6.05;1.73;;;9.60;99.90;;;;;;5109027;27;20083;-79
2023/04/15 09:41:45;;;;;;;8.57;1.17;;;9.70;99.90;;;;;;5075585;27;20104;-79
2023/04/15 09:44:25;;;;;;;1.92;1.15;;;9.70;99.90;;;;;;5091756;27;20038;-79
2023/04/15 09:46:51;;;;;;;3.17;0.82;;;9.70;99.90;;;;;;5110099;27;20605;-79
2023/04/15 09:49:16;;;;;;;3.83;1.15;;;9.70;99.90;;;;;;5091881;27;20045;-78
2023/04/15 09:51:43;;;;;;;1.83;0.90;;;9.60;99.90;;;;;;5092284;27;20089;-79
2023/04/15 09:54:09;;;;;;;3.92;0.90;;;9.60;99.90;;;;;;5109499;27;20123;-79
2023/04/15 09:56:37;;;;;;;5.50;1.10;;;9.60;99.90;;;;;;5108445;27;20079;-79
2023/04/15 09:59:04;;;;;;;6.25;1.50;;;9.60;99.90;;;;;;5109113;27;20078;-79
2023/04/15 10:01:31;;;;;;;3.60;1.00;;;9.60;99.90;;;;;;5108233;27;20043;-78
2023/04/15 10:03:57;;;;;;;2.20;1.15;;;10.70;99.90;;;;;;5109629;27;20130;-79
2023/04/15 10:06:26;;;;;;;6.95;1.15;;;9.70;99.90;;;;;;5108370;27;20048;-80
2023/04/15 10:08:54;;;;;;;2.53;0.90;;;10.10;99.90;;;;;;5108438;27;20486;-77
2023/04/15 10:11:22;;;;;;;2.90;0.90;;;9.80;99.90;;;;;;5108877;27;20091;-76
2023/04/15 10:13:49;;;;;;;7.93;1.10;;;9.70;99.90;;;;;;5108269;27;20047;-76
2023/04/15 10:16:17;;;;;;;3.08;1.25;;;9.70;99.90;;;;;;5108707;27;20043;-77
2023/04/15 10:18:53;;;;;;;5.50;1.20;;;9.70;99.90;;;;;;5090984;27;20044;-79
2023/04/15 10:21:22;;;;;;;3.70;0.90;;;9.70;99.90;;;;;;5109113;27;20054;-80
2023/04/15 10:23:48;;;;;;;3.10;1.20;;;9.70;99.90;;;;;;5091825;27;20112;-78
2023/04/15 10:26:15;;;;;;;4.25;1.10;;;9.60;99.90;;;;;;5090990;27;20489;-79
2023/04/15 10:28:41;;;;;;;7.15;1.27;;;9.60;99.90;;;;;;5109163;27;20134;-79
2023/04/15 10:31:07;;;;;;;4.35;1.20;;;9.50;99.90;;;;;;5074145;27;20047;-79
2023/04/15 10:33:34;;;;;;;4.25;1.50;;;9.50;99.90;;;;;;5091980;27;20051;-79
2023/04/15 10:36:01;;;;;;;7.97;1.20;;;9.80;99.90;;;;;;5107506;27;20403;-78
2023/04/15 10:38:33;;;;;;;5.55;1.25;;;9.50;99.90;;;;;;5091701;27;20328;-79
2023/04/15 10:41:15;;;;;;;7.13;1.27;;;9.50;99.90;;;;;;5108558;27;20130;-79
2023/04/15 10:43:54;;;;;;;5.80;1.40;;;9.50;99.90;;;;;;5091000;27;20096;-80
2023/04/15 10:46:38;;;;;;;5.22;1.08;;;9.50;99.90;;;;;;5108808;27;20198;-81
2023/04/15 10:49:13;;;;;;;5.80;1.55;;;9.50;99.90;;;;;;5091394;27;20371;-79
2023/04/15 10:51:42;;;;;;;4.38;1.00;;;9.50;99.90;;;;;;5090886;27;20168;-80
2023/04/15 10:54:15;;;;;;;8.18;1.95;;;9.50;99.90;;;;;;5107988;27;20043;-80
2023/04/15 10:56:43;;;;;;;10.75;1.50;;;9.50;99.90;;;;;;5107917;27;20426;-79
2023/04/15 10:59:09;;;;;;;14.45;1.58;;;9.80;99.90;;;;;;5108707;27;20545;-83
2023/04/15 11:02:06;;;;;;;6.10;1.63;;;9.60;99.90;;;;;;5089933;27;20039;-79
2023/04/15 11:04:51;;;;;;;1.73;0.98;;;9.60;99.90;;;;;;5093122;27;20051;-78
2023/04/15 11:07:54;;;;;;;6.50;1.02;;;9.50;99.90;;;;;;5107772;27;20100;-78
2023/04/15 11:10:29;;;;;;;6.63;1.50;;;9.50;99.90;;;;;;5026067;28;20048;-78
2023/04/15 11:13:15;;;;;;;7.30;2.10;;;9.50;99.90;;;;;;5100256;27;20124;-79
2023/04/15 11:15:45;;;;;;;8.82;1.70;;;9.60;99.90;;;;;;5107837;27;20442;-79
2023/04/15 11:18:21;;;;;;;6.10;1.20;;;9.60;99.90;;;;;;5107763;27;20486;-79
2023/04/15 11:20:49;;;;;;;11.07;1.35;;;9.60;99.90;;;;;;5095505;27;20576;-78
2023/04/15 11:23:26;;;;;;;5.35;1.05;;;9.70;99.90;;;;;;5107492;27;20079;-78
2023/04/15 11:25:55;;;;;;;6.40;1.00;;;9.70;99.90;;;;;;5107946;27;20046;-79
2023/04/15 11:28:25;;;;;;;6.18;1.15;;;8.80;99.90;;;;;;5107863;27;20081;-79
2023/04/15 11:30:51;;;;;;;4.45;1.00;;;9.80;99.90;;;;;;5107063;28;20070;-79
2023/04/15 11:33:17;;;;;;;9.27;1.50;;;10.20;99.90;;;;;;5107331;27;20494;-82
2023/04/15 11:35:42;;;;;;;7.78;1.20;;;9.80;99.90;;;;;;5073162;28;20043;-79
2023/04/15 11:38:11;;;;;;;9.10;1.30;;;9.80;99.90;;;;;;5107625;27;20047;-78
2023/04/15 11:40:37;;;;;;;8.82;2.17;;;9.80;99.90;;;;;;5090057;28;20125;-79
2023/04/15 11:43:22;;;;;;;6.85;2.35;;;9.80;99.90;;;;;;5090097;28;20054;-79
2023/04/15 11:45:59;;;;;;;9.13;1.40;;;9.80;99.90;;;;;;5107505;28;20049;-79
2023/04/15 11:48:30;;;;;;;6.63;1.85;;;9.90;99.90;;;;;;5106879;28;20039;-79
2023/04/15 11:51:00;;;;;;;5.88;1.27;;;10.00;99.90;;;;;;5108267;28;20070;-79
2023/04/15 11:53:47;;;;;;;5.85;1.60;;;9.90;99.90;;;;;;5106721;28;20079;-78
2023/04/15 11:56:21;;;;;;;5.22;1.40;;;9.80;99.90;;;;;;5124902;28;20043;-79
2023/04/15 11:58:49;;;;;;;6.40;1.50;;;9.70;99.90;;;;;;5107295;28;20050;-77
2023/04/15 12:01:15;;;;;;;8.57;1.13;;;9.70;99.90;;;;;;5106385;28;20075;-79
2023/04/15 12:03:45;;;;;;;4.43;1.08;;;9.60;99.90;;;;;;5107407;28;20497;-77
2023/04/15 12:06:30;;;;;;;7.07;1.27;;;9.60;99.90;;;;;;5089675;28;20051;-77
2023/04/15 12:09:12;;;;;;;8.32;1.33;;;9.70;99.90;;;;;;5106374;28;20047;-78
2023/04/15 12:11:46;;;;;;;5.57;1.08;;;9.60;99.90;;;;;;5091356;27;20055;-78
2023/04/15 12:14:11;;;;;;;5.45;1.08;;;9.60;99.90;;;;;;5110761;27;20039;-77
2023/04/15 12:16:43;;;;;;;7.97;1.27;;;9.60;99.90;;;;;;5111098;27;20486;-77
2023/04/15 12:19:11;;;;;;;3.15;0.98;;;9.60;99.90;;;;;;5093377;27;20054;-77
2023/04/15 12:21:40;;;;;;;8.48;1.48;;;9.70;99.90;;;;;;5110439;27;20187;-77
2023/04/15 12:24:08;;;;;;;8.35;2.22;;;9.80;99.90;;;;;;5093849;27;20080;-77
2023/04/15 12:26:49;;;;;;;9.40;1.60;;;9.80;99.90;;;;;;5110850;27;20126;-82
2023/04/15 12:29:16;;;;;;;5.22;1.00;;;9.80;99.90;;;;;;5094277;27;20070;-82
2023/04/15 12:31:53;;;;;;;4.00;1.15;;;9.80;99.90;;;;;;5109825;27;20035;-78
2023/04/15 12:34:30;;;;;;;6.95;1.92;;;9.80;99.90;;;;;;5093116;27;20043;-78
2023/04/15 12:36:57;;;;;;;10.60;1.02;;;9.80;99.90;;;;;;5093506;27;20059;-78
2023/04/15 12:39:24;;;;;;;10.63;1.15;;;9.80;99.90;;;;;;5109625;27;20078;-78
2023/04/15 12:41:50;;;;;;;11.45;1.08;;;9.70;99.90;;;;;;5110516;27;20168;-78
2023/04/15 12:44:16;;;;;;;6.05;1.20;;;9.70;99.90;;;;;;5109896;27;20051;-78
2023/04/15 12:46:42;;;;;;;12.05;1.70;;;9.70;99.90;;;;;;5077772;27;20035;-78
2023/04/15 12:49:08;;;;;;;9.57;1.75;;;9.70;99.90;;;;;;5110432;27;20416;-78